createdAt,value
2023-01-28T00:00:51.150Z,3.43
2023-01-28T00:03:18.499Z,3.07
2023-01-28T00:05:45.963Z,3.60
2023-01-28T00:08:14.842Z,3.47
2023-01-28T00:10:43.181Z,3.57
2023-01-28T00:13:12.827Z,3.30
2023-01-28T00:15:40.156Z,2.70
2023-01-28T00:18:07.526Z,3.13
2023-01-28T00:20:35.413Z,3.33
2023-01-28T00:23:03.034Z,2.90
2023-01-28T00:25:30.637Z,3.77
2023-01-28T00:27:58.008Z,3.60
2023-01-28T00:30:25.386Z,3.40
2023-01-28T00:32:55.806Z,3.13
2023-01-28T00:35:23.274Z,2.80
2023-01-28T00:37:50.652Z,3.17
2023-01-28T00:40:18.144Z,2.93
2023-01-28T00:42:45.515Z,3.27
2023-01-28T00:45:13.376Z,3.93
2023-01-28T00:47:40.951Z,3.40
2023-01-28T00:50:08.526Z,3.77
2023-01-28T00:52:36.105Z,3.43
2023-01-28T00:55:03.574Z,3.77
2023-01-28T00:57:30.949Z,4.13
2023-01-28T00:59:58.290Z,3.40
2023-01-28T01:02:25.944Z,3.70
2023-01-28T01:04:59.428Z,3.67
2023-01-28T01:07:46.551Z,3.37
2023-01-28T01:10:15.244Z,3.07
2023-01-28T01:12:42.810Z,3.60
2023-01-28T01:15:11.011Z,3.60
2023-01-28T01:17:39.450Z,3.33
2023-01-28T01:20:09.173Z,3.30
2023-01-28T01:22:37.408Z,3.10
2023-01-28T01:25:05.501Z,3.43
2023-01-28T01:27:33.407Z,2.60
2023-01-28T01:30:00.785Z,2.97
2023-01-28T01:32:32.125Z,3.57
2023-01-28T01:34:59.853Z,3.60
2023-01-28T01:37:27.381Z,3.33
2023-01-28T01:39:54.828Z,3.67
2023-01-28T01:42:22.218Z,3.60
2023-01-28T01:44:59.976Z,3.93
2023-01-28T01:47:30.337Z,3.30
2023-01-28T01:49:58.004Z,5.53
2023-01-28T01:52:29.179Z,3.33
2023-01-28T01:54:58.915Z,3.67
2023-01-28T01:57:30.004Z,3.70
2023-01-28T02:00:06.007Z,4.90
2023-01-28T02:02:41.935Z,4.03
2023-01-28T02:05:10.416Z,3.20
2023-01-28T02:07:37.964Z,3.63
2023-01-28T02:10:06.262Z,4.30
2023-01-28T02:12:38.017Z,3.90
2023-01-28T02:15:07.963Z,4.10
2023-01-28T02:17:36.240Z,4.00
2023-01-28T02:20:05.621Z,4.70
2023-01-28T02:22:51.655Z,4.17
2023-01-28T02:25:34.927Z,4.50
2023-01-28T02:28:25.093Z,4.40
2023-01-28T02:30:55.524Z,4.10
2023-01-28T02:33:45.673Z,3.83
2023-01-28T02:36:17.677Z,3.80
2023-01-28T02:38:50.465Z,3.67
2023-01-28T02:41:21.800Z,4.20
2023-01-28T02:43:49.724Z,3.33
2023-01-28T02:46:46.443Z,3.80
2023-01-28T02:49:18.753Z,3.27
2023-01-28T02:51:58.158Z,3.73
2023-01-28T02:54:25.539Z,3.70
2023-01-28T02:56:57.987Z,3.20
2023-01-28T02:59:30.921Z,3.43
2023-01-28T03:02:15.082Z,3.60
2023-01-28T03:04:48.260Z,3.77
2023-01-28T03:07:18.295Z,3.80
2023-01-28T03:09:47.557Z,3.87
2023-01-28T03:12:42.999Z,3.53
2023-01-28T03:15:37.142Z,3.50
2023-01-28T03:18:26.799Z,4.03
2023-01-28T03:21:18.946Z,3.87
2023-01-28T03:24:24.988Z,3.70
2023-01-28T03:27:21.648Z,3.30
2023-01-28T03:30:16.142Z,3.90
2023-01-28T03:33:02.813Z,3.43
2023-01-28T03:35:50.476Z,3.40
2023-01-28T03:38:18.760Z,3.77
2023-01-28T03:41:00.498Z,4.00
2023-01-28T03:43:29.128Z,3.57
2023-01-28T03:45:56.649Z,3.80
2023-01-28T03:48:25.629Z,3.70
2023-01-28T03:50:55.283Z,3.73
2023-01-28T03:53:23.939Z,4.17
2023-01-28T03:55:53.358Z,4.07
2023-01-28T03:58:21.227Z,4.20
2023-01-28T04:00:48.643Z,3.93
2023-01-28T04:03:17.762Z,4.13
2023-01-28T04:06:01.153Z,4.00
2023-01-28T04:08:59.336Z,3.20
2023-01-28T04:11:39.385Z,3.77
2023-01-28T04:14:08.044Z,3.57
2023-01-28T04:16:55.747Z,4.43
2023-01-28T04:19:25.513Z,4.70
2023-01-28T04:21:54.320Z,4.30
2023-01-28T04:24:22.592Z,4.20
2023-01-28T04:26:50.326Z,3.60
2023-01-28T04:29:17.744Z,4.60
2023-01-28T04:31:45.187Z,4.30
2023-01-28T04:34:20.473Z,5.00
2023-01-28T04:37:07.971Z,4.50
2023-01-28T04:39:53.837Z,4.30
2023-01-28T04:42:28.652Z,4.27
2023-01-28T04:45:07.764Z,4.30
2023-01-28T04:47:53.527Z,4.50
2023-01-28T04:50:39.279Z,3.93
2023-01-28T04:53:26.932Z,4.77
2023-01-28T04:55:58.708Z,5.03
2023-01-28T04:58:27.758Z,4.47
2023-01-28T05:01:00.699Z,4.60
2023-01-28T05:03:28.326Z,4.50
2023-01-28T05:05:56.101Z,4.27
2023-01-28T05:08:45.966Z,4.30
2023-01-28T05:11:14.554Z,4.00
2023-01-28T05:13:42.366Z,3.73
2023-01-28T05:16:12.732Z,3.77
2023-01-28T05:18:40.296Z,3.70
2023-01-28T05:21:16.008Z,3.77
2023-01-28T05:23:44.627Z,4.23
2023-01-28T05:26:12.065Z,3.47
2023-01-28T05:28:39.415Z,3.83
2023-01-28T05:31:08.852Z,3.73
2023-01-28T05:33:36.242Z,3.63
2023-01-28T05:36:06.001Z,4.00
2023-01-28T05:38:33.517Z,4.43
2023-01-28T05:41:00.967Z,3.47
2023-01-28T05:43:28.787Z,3.57
2023-01-28T05:46:22.731Z,4.40
2023-01-28T05:49:16.717Z,4.03
2023-01-28T05:51:56.677Z,4.33
2023-01-28T05:54:24.879Z,3.87
2023-01-28T05:56:52.668Z,3.90
2023-01-28T05:59:20.117Z,3.87
2023-01-28T06:01:49.689Z,4.17
2023-01-28T06:04:18.931Z,4.00
2023-01-28T06:06:46.793Z,4.33
2023-01-28T06:09:14.342Z,4.47
2023-01-28T06:11:41.838Z,5.23
2023-01-28T06:14:09.291Z,4.73
2023-01-28T06:16:54.834Z,4.10
2023-01-28T06:19:27.385Z,4.57
2023-01-28T06:21:54.759Z,4.30
2023-01-28T06:24:22.305Z,5.07
2023-01-28T06:26:49.774Z,4.20
2023-01-28T06:29:17.177Z,5.23
2023-01-28T06:31:44.513Z,4.50
2023-01-28T06:34:11.933Z,5.30
2023-01-28T06:36:39.286Z,4.73
2023-01-28T06:39:06.676Z,4.80
2023-01-28T06:41:34.340Z,4.63
2023-01-28T06:44:02.192Z,5.10
2023-01-28T06:46:29.923Z,6.70
2023-01-28T06:48:57.368Z,5.20
2023-01-28T06:51:24.728Z,4.83
2023-01-28T06:53:52.123Z,4.80
2023-01-28T06:56:19.537Z,5.40
2023-01-28T06:58:46.907Z,5.37
2023-01-28T07:01:14.400Z,6.50
2023-01-28T07:03:41.835Z,5.17
2023-01-28T07:06:09.369Z,5.87
2023-01-28T07:08:37.914Z,6.50
2023-01-28T07:11:05.373Z,6.10
2023-01-28T07:13:32.952Z,6.20
2023-01-28T07:16:00.518Z,6.33
2023-01-28T07:18:27.946Z,5.23
2023-01-28T07:20:55.269Z,5.07
2023-01-28T07:23:23.040Z,5.47
2023-01-28T07:25:50.562Z,4.97
2023-01-28T07:28:24.006Z,5.27
2023-01-28T07:30:53.459Z,4.63
2023-01-28T07:33:21.499Z,4.97
2023-01-28T07:35:49.232Z,5.77
2023-01-28T07:38:16.586Z,4.30
2023-01-28T07:40:45.256Z,5.50
2023-01-28T07:43:12.692Z,6.67
2023-01-28T07:45:41.457Z,5.20
2023-01-28T07:48:10.862Z,5.80
2023-01-28T07:50:39.636Z,5.70
2023-01-28T07:53:08.087Z,5.30
2023-01-28T07:55:36.103Z,5.60
2023-01-28T07:58:04.766Z,5.40
2023-01-28T08:00:33.345Z,5.90
2023-01-28T08:03:01.848Z,6.37
2023-01-28T08:05:32.861Z,6.67
2023-01-28T08:08:00.438Z,5.80
2023-01-28T08:10:27.859Z,5.87
2023-01-28T08:12:56.236Z,5.80
2023-01-28T08:15:24.944Z,5.50
2023-01-28T08:17:55.574Z,6.40
2023-01-28T08:20:23.605Z,5.67
2023-01-28T08:22:50.978Z,6.07
2023-01-28T08:25:18.686Z,5.60
2023-01-28T08:27:46.230Z,6.47
2023-01-28T08:30:13.933Z,6.77
2023-01-28T08:32:41.774Z,7.60
2023-01-28T08:35:09.297Z,5.57
2023-01-28T08:37:36.764Z,6.03
2023-01-28T08:40:04.283Z,5.87
2023-01-28T08:42:31.765Z,6.30
2023-01-28T08:44:59.211Z,6.47
2023-01-28T08:47:26.606Z,6.87
2023-01-28T08:49:54.317Z,7.07
2023-01-28T08:52:21.699Z,12.30
2023-01-28T08:54:49.176Z,7.03
2023-01-28T08:57:16.564Z,7.23
2023-01-28T08:59:46.178Z,8.50
2023-01-28T09:02:30.277Z,6.37
2023-01-28T09:04:58.404Z,6.77
2023-01-28T09:07:25.797Z,6.60
2023-01-28T09:09:53.146Z,7.43
2023-01-28T09:12:20.494Z,5.87
2023-01-28T09:14:48.041Z,7.30
2023-01-28T09:17:15.351Z,6.73
2023-01-28T09:19:42.714Z,6.67
2023-01-28T09:22:10.168Z,7.23
2023-01-28T09:24:38.976Z,6.13
2023-01-28T09:27:06.689Z,8.13
2023-01-28T09:29:38.665Z,7.13
2023-01-28T09:32:07.314Z,6.33
2023-01-28T09:34:34.992Z,6.20
2023-01-28T09:37:02.433Z,6.50
2023-01-28T09:39:29.893Z,6.07
2023-01-28T09:42:15.695Z,5.47
2023-01-28T09:44:54.175Z,5.93
2023-01-28T09:47:24.619Z,5.90
2023-01-28T09:49:53.097Z,5.30
2023-01-28T09:52:22.559Z,6.37
2023-01-28T09:55:02.531Z,5.80
2023-01-28T09:57:41.844Z,4.97
2023-01-28T10:00:24.375Z,5.07
2023-01-28T10:03:08.905Z,5.33
2023-01-28T10:05:37.523Z,5.20
2023-01-28T10:08:11.540Z,5.17
2023-01-28T10:10:47.911Z,5.10
2023-01-28T10:13:27.836Z,5.47
2023-01-28T10:16:17.528Z,6.17
2023-01-28T10:19:03.837Z,5.60
2023-01-28T10:22:00.519Z,5.73
2023-01-28T10:24:40.443Z,5.23
2023-01-28T10:27:16.256Z,5.47
2023-01-28T10:29:46.489Z,5.10
2023-01-28T10:32:13.903Z,11.17
2023-01-28T10:34:41.441Z,22.90
2023-01-28T10:37:11.311Z,6.40
2023-01-28T10:39:38.782Z,6.77
2023-01-28T10:42:17.071Z,5.53
2023-01-28T10:44:45.375Z,5.70
2023-01-28T10:47:17.668Z,6.30
2023-01-28T10:49:48.584Z,6.27
2023-01-28T10:52:17.032Z,5.97
2023-01-28T10:54:44.761Z,6.33
2023-01-28T10:57:14.472Z,6.30
2023-01-28T10:59:42.897Z,7.10
2023-01-28T11:02:29.650Z,6.57
2023-01-28T11:05:06.379Z,7.60
2023-01-28T11:07:34.310Z,6.77
2023-01-28T11:10:02.418Z,6.53
2023-01-28T11:12:31.121Z,7.77
2023-01-28T11:14:58.658Z,6.93
2023-01-28T11:17:29.166Z,6.83
2023-01-28T11:19:59.172Z,6.57
2023-01-28T11:22:29.533Z,6.63
2023-01-28T11:24:56.946Z,6.87
2023-01-28T11:27:29.493Z,7.67
2023-01-28T11:30:02.081Z,8.13
2023-01-28T11:32:31.493Z,8.17
2023-01-28T11:35:02.114Z,6.93
2023-01-28T11:37:29.658Z,6.30
2023-01-28T11:40:21.668Z,7.37
2023-01-28T11:42:51.033Z,6.47
2023-01-28T11:45:19.677Z,6.60
2023-01-28T11:48:03.238Z,7.17
2023-01-28T11:50:35.800Z,6.77
2023-01-28T11:53:09.112Z,7.40
2023-01-28T11:55:50.727Z,7.03
2023-01-28T11:58:23.979Z,8.07
2023-01-28T12:00:57.186Z,6.60
2023-01-28T12:03:25.090Z,7.03
2023-01-28T12:05:54.091Z,8.13
2023-01-28T12:08:30.458Z,8.33
2023-01-28T12:10:57.806Z,7.57
2023-01-28T12:13:37.405Z,6.63
2023-01-28T12:16:20.131Z,6.67
2023-01-28T12:19:05.887Z,7.67
2023-01-28T12:21:40.230Z,7.13
2023-01-28T12:24:16.256Z,6.93
2023-01-28T12:26:43.668Z,7.30
2023-01-28T12:29:20.280Z,7.20
2023-01-28T12:32:03.016Z,11.43
2023-01-28T12:34:52.203Z,7.60
2023-01-28T12:37:41.986Z,7.87
2023-01-28T12:40:18.668Z,7.73
2023-01-28T12:42:49.093Z,8.33
2023-01-28T12:45:25.710Z,6.63
2023-01-28T12:47:59.764Z,7.60
2023-01-28T12:50:37.836Z,7.70
2023-01-28T12:53:27.820Z,7.47
2023-01-28T12:55:59.039Z,7.50
2023-01-28T12:58:44.688Z,6.93
2023-01-28T13:01:14.750Z,7.47
2023-01-28T13:03:51.575Z,7.37
2023-01-28T13:06:28.390Z,7.30
2023-01-28T13:08:59.094Z,7.27
2023-01-28T13:11:31.328Z,7.10
2023-01-28T13:13:58.667Z,7.70
2023-01-28T13:16:36.687Z,8.10
2023-01-28T13:19:08.901Z,7.80
2023-01-28T13:21:47.754Z,7.87
2023-01-28T13:24:16.400Z,9.13
2023-01-28T13:26:45.210Z,9.83
2023-01-28T13:29:15.323Z,8.73
2023-01-28T13:31:44.308Z,8.50
2023-01-28T13:34:34.623Z,8.60
2023-01-28T13:37:16.117Z,7.73
2023-01-28T13:39:48.022Z,10.10
2023-01-28T13:42:20.435Z,9.43
2023-01-28T13:44:48.064Z,9.37
2023-01-28T13:47:21.763Z,9.17
2023-01-28T13:49:50.968Z,9.77
2023-01-28T13:52:21.510Z,8.07
2023-01-28T13:54:52.659Z,9.83
2023-01-28T13:57:22.958Z,9.63
2023-01-28T13:59:50.511Z,8.20
2023-01-28T14:02:17.786Z,8.53
2023-01-28T14:04:54.311Z,8.83
2023-01-28T14:07:27.235Z,8.27
2023-01-28T14:10:07.111Z,8.77
2023-01-28T14:13:00.915Z,9.93
2023-01-28T14:15:28.563Z,8.93
2023-01-28T14:17:57.546Z,8.63
2023-01-28T14:20:31.602Z,9.80
2023-01-28T14:23:02.047Z,11.20
2023-01-28T14:25:44.526Z,10.57
2023-01-28T14:28:16.072Z,12.40
2023-01-28T14:31:06.879Z,8.90
2023-01-28T14:33:34.456Z,8.97
2023-01-28T14:36:01.892Z,10.20
2023-01-28T14:38:29.334Z,9.17
2023-01-28T14:40:59.712Z,9.90
2023-01-28T14:43:27.869Z,9.40
2023-01-28T14:46:05.660Z,8.43
2023-01-28T14:48:55.872Z,10.87
2023-01-28T14:51:23.319Z,9.07
2023-01-28T14:54:09.629Z,9.57
2023-01-28T14:56:53.174Z,10.20
2023-01-28T14:59:40.847Z,9.27
2023-01-28T15:02:18.307Z,9.70
2023-01-28T15:04:45.732Z,10.23
2023-01-28T15:07:17.765Z,9.13
2023-01-28T15:09:45.550Z,9.53
2023-01-28T15:12:13.714Z,9.37
2023-01-28T15:14:41.520Z,9.33
2023-01-28T15:17:30.105Z,8.47
2023-01-28T15:19:58.584Z,10.20
2023-01-28T15:22:28.304Z,9.17
2023-01-28T15:24:56.180Z,9.47
2023-01-28T15:27:27.402Z,9.40
2023-01-28T15:29:56.104Z,10.03
2023-01-28T15:32:28.694Z,9.60
2023-01-28T15:34:56.299Z,10.67
2023-01-28T15:37:24.277Z,12.07
2023-01-28T15:40:15.135Z,12.57
2023-01-28T15:42:42.851Z,14.73
2023-01-28T15:45:20.881Z,13.17
2023-01-28T15:47:50.045Z,11.63
2023-01-28T15:50:25.968Z,10.70
2023-01-28T15:52:55.557Z,11.97
2023-01-28T15:55:42.823Z,11.27
2023-01-28T15:58:13.344Z,11.73
2023-01-28T16:00:40.748Z,12.17
2023-01-28T16:03:09.919Z,11.97
2023-01-28T16:05:37.301Z,11.87
2023-01-28T16:08:09.039Z,12.97
2023-01-28T16:10:36.679Z,13.47
2023-01-28T16:13:12.792Z,13.63
2023-01-28T16:15:45.857Z,12.07
2023-01-28T16:18:39.731Z,13.47
2023-01-28T16:21:10.495Z,11.67
2023-01-28T16:23:39.595Z,13.20
2023-01-28T16:26:23.748Z,12.30
2023-01-28T16:28:51.463Z,13.73
2023-01-28T16:31:19.775Z,12.90
2023-01-28T16:33:47.431Z,13.83
2023-01-28T16:36:16.227Z,13.77
2023-01-28T16:38:43.833Z,12.30
2023-01-28T16:41:33.420Z,11.97
2023-01-28T16:44:05.511Z,12.10
2023-01-28T16:46:33.928Z,14.40
2023-01-28T16:49:01.453Z,12.97
2023-01-28T16:51:29.115Z,14.00
2023-01-28T16:53:56.831Z,13.87
2023-01-28T16:56:51.794Z,14.63
2023-01-28T16:59:14.851Z,13.43
2023-01-28T17:01:42.752Z,15.27
2023-01-28T17:04:12.704Z,15.67
2023-01-28T17:06:45.359Z,14.73
2023-01-28T17:09:14.496Z,13.90
2023-01-28T17:11:42.183Z,14.97
2023-01-28T17:14:10.771Z,15.00
2023-01-28T17:16:38.689Z,15.60
2023-01-28T17:19:06.284Z,16.00
2023-01-28T17:21:33.645Z,16.00
2023-01-28T17:24:01.614Z,17.43
2023-01-28T17:26:29.370Z,17.13
2023-01-28T17:28:57.140Z,17.97
2023-01-28T17:31:26.336Z,16.90
2023-01-28T17:33:55.266Z,18.40
2023-01-28T17:36:23.447Z,17.70
2023-01-28T17:38:51.063Z,17.27
2023-01-28T17:41:18.766Z,17.30
2023-01-28T17:43:53.271Z,18.03
2023-01-28T17:46:21.448Z,17.73
2023-01-28T17:48:48.914Z,18.17
2023-01-28T17:51:19.880Z,18.70
2023-01-28T17:53:52.282Z,19.00
2023-01-28T17:56:22.619Z,18.83
2023-01-28T17:58:51.092Z,17.93
2023-01-28T18:01:18.608Z,18.97
2023-01-28T18:03:46.102Z,20.93
2023-01-28T18:06:13.852Z,21.20
2023-01-28T18:08:41.298Z,19.97
2023-01-28T18:11:09.669Z,16.43
2023-01-28T18:13:40.301Z,18.30
2023-01-28T18:16:11.685Z,17.57
2023-01-28T18:18:39.504Z,18.60
2023-01-28T18:21:07.511Z,17.77
2023-01-28T18:23:35.231Z,19.13
2023-01-28T18:26:08.036Z,18.20
2023-01-28T18:28:38.908Z,16.77
2023-01-28T18:31:06.905Z,18.47
2023-01-28T18:33:34.844Z,18.77
2023-01-28T18:36:02.328Z,19.00
2023-01-28T18:38:29.798Z,17.63
2023-01-28T18:40:57.176Z,17.77
2023-01-28T18:43:24.606Z,17.97
2023-01-28T18:45:52.430Z,17.70
2023-01-28T18:48:20.063Z,18.07
2023-01-28T18:50:54.274Z,16.80
2023-01-28T18:53:22.589Z,17.13
2023-01-28T18:55:50.309Z,18.50
2023-01-28T18:58:27.900Z,18.47
2023-01-28T19:00:56.663Z,19.13
2023-01-28T19:03:24.182Z,17.30
2023-01-28T19:05:51.830Z,18.60
2023-01-28T19:08:19.254Z,19.17
2023-01-28T19:10:54.829Z,18.03
2023-01-28T19:13:22.259Z,19.80
2023-01-28T19:15:49.666Z,18.60
2023-01-28T19:18:17.137Z,19.77
2023-01-28T19:20:44.648Z,18.90
2023-01-28T19:23:12.475Z,20.10
2023-01-28T19:25:40.708Z,18.17
2023-01-28T19:28:08.555Z,17.33
2023-01-28T19:30:37.281Z,18.37
2023-01-28T19:33:10.051Z,19.33
2023-01-28T19:35:39.467Z,19.50
2023-01-28T19:38:09.372Z,19.77
2023-01-28T19:40:40.315Z,19.43
2023-01-28T19:43:07.743Z,18.70
2023-01-28T19:45:35.255Z,19.07
2023-01-28T19:48:02.602Z,19.27
2023-01-28T19:50:30.799Z,19.80
2023-01-28T19:52:58.097Z,19.00
2023-01-28T19:55:25.466Z,20.97
2023-01-28T19:57:52.905Z,18.13
2023-01-28T20:00:20.638Z,18.27
2023-01-28T20:02:51.314Z,19.33
2023-01-28T20:05:18.684Z,19.33
2023-01-28T20:07:46.583Z,21.20
2023-01-28T20:10:13.942Z,19.57
2023-01-28T20:12:41.287Z,21.20
2023-01-28T20:15:08.991Z,19.67
2023-01-28T20:17:36.445Z,19.40
2023-01-28T20:20:05.435Z,21.93
2023-01-28T20:22:33.777Z,21.07
2023-01-28T20:25:01.118Z,19.37
2023-01-28T20:27:28.486Z,19.97
2023-01-28T20:29:55.824Z,21.93
2023-01-28T20:32:23.280Z,21.63
2023-01-28T20:34:52.011Z,22.20
2023-01-28T20:37:19.789Z,21.83
2023-01-28T20:39:47.084Z,22.53
2023-01-28T20:42:14.479Z,19.83
2023-01-28T20:44:41.832Z,21.47
2023-01-28T20:47:09.266Z,21.00
2023-01-28T20:49:36.580Z,20.80
2023-01-28T20:52:04.390Z,21.80
2023-01-28T20:54:32.198Z,20.97
2023-01-28T20:56:59.571Z,21.50
2023-01-28T20:59:27.520Z,20.23
2023-01-28T21:01:54.876Z,21.33
2023-01-28T21:04:22.276Z,22.00
2023-01-28T21:06:49.870Z,20.93
2023-01-28T21:09:17.351Z,22.33
2023-01-28T21:11:44.659Z,21.63
2023-01-28T21:14:16.733Z,22.20
2023-01-28T21:16:44.737Z,21.07
2023-01-28T21:19:12.187Z,20.63
2023-01-28T21:21:42.602Z,21.30
2023-01-28T21:24:11.452Z,21.20
2023-01-28T21:26:39.057Z,21.37
2023-01-28T21:29:06.457Z,19.20
2023-01-28T21:31:33.820Z,21.33
2023-01-28T21:34:01.655Z,19.97
2023-01-28T21:36:33.539Z,23.63
2023-01-28T21:39:01.728Z,22.63
2023-01-28T21:41:29.106Z,23.00
2023-01-28T21:43:57.657Z,22.37
2023-01-28T21:46:26.077Z,21.93
2023-01-28T21:48:57.524Z,23.03
2023-01-28T21:51:45.924Z,22.10
2023-01-28T21:54:17.120Z,21.93
2023-01-28T21:56:45.163Z,23.53
2023-01-28T21:59:28.421Z,21.33
2023-01-28T22:01:56.084Z,23.13
2023-01-28T22:04:24.546Z,22.33
2023-01-28T22:06:53.446Z,21.33
2023-01-28T22:09:20.741Z,21.53
2023-01-28T22:11:48.278Z,22.27
2023-01-28T22:14:15.822Z,22.00
2023-01-28T22:16:43.588Z,21.73
2023-01-28T22:19:11.295Z,23.30
2023-01-28T22:21:42.045Z,21.13
2023-01-28T22:24:09.673Z,22.00
2023-01-28T22:26:37.115Z,23.10
2023-01-28T22:29:05.324Z,25.55
2023-01-28T22:31:33.107Z,23.53
2023-01-28T22:34:00.534Z,23.17
2023-01-28T22:36:27.920Z,23.73
2023-01-28T22:38:55.354Z,23.90
2023-01-28T22:41:23.752Z,24.27
2023-01-28T22:43:51.894Z,23.20
2023-01-28T22:46:20.289Z,22.13
2023-01-28T22:48:48.445Z,29.50
2023-01-28T22:51:15.983Z,24.20
2023-01-28T22:53:43.693Z,24.67
2023-01-28T22:56:11.491Z,23.57
2023-01-28T22:58:39.169Z,21.80
2023-01-28T23:01:07.113Z,23.03
2023-01-28T23:03:34.755Z,23.50
2023-01-28T23:06:05.512Z,23.03
2023-01-28T23:08:34.295Z,23.27
2023-01-28T23:11:02.842Z,23.70
2023-01-28T23:13:53.796Z,22.47
2023-01-28T23:16:40.335Z,22.17
2023-01-28T23:19:27.453Z,22.50
2023-01-28T23:22:13.689Z,23.40
2023-01-28T23:24:41.285Z,23.33
2023-01-28T23:27:09.222Z,24.00
2023-01-28T23:29:36.562Z,22.17
2023-01-28T23:32:05.192Z,21.57
2023-01-28T23:34:34.461Z,24.33
2023-01-28T23:37:02.859Z,24.23
2023-01-28T23:39:30.340Z,23.53
2023-01-28T23:41:57.984Z,24.10
2023-01-28T23:44:25.913Z,24.00
2023-01-28T23:46:53.695Z,25.07
2023-01-28T23:49:21.181Z,25.07
2023-01-28T23:51:49.607Z,23.60
2023-01-28T23:54:17.805Z,24.63
2023-01-28T23:56:45.089Z,23.10
2023-01-28T23:59:12.629Z,23.83
